createdAt,value
2022-11-13T00:00:05.807Z,13.33
2022-11-13T00:02:51.856Z,17.93
2022-11-13T00:05:37.649Z,18.80
2022-11-13T00:08:23.402Z,12.60
2022-11-13T00:11:20.898Z,10.83
2022-11-13T00:14:06.759Z,12.17
2022-11-13T00:16:52.389Z,13.07
2022-11-13T00:19:38.309Z,14.80
2022-11-13T00:22:24.291Z,19.20
2022-11-13T00:25:10.761Z,15.17
2022-11-13T00:27:56.609Z,16.07
2022-11-13T00:30:42.635Z,14.83
2022-11-13T00:33:53.584Z,17.27
2022-11-13T00:36:35.250Z,14.73
2022-11-13T00:39:21.621Z,15.93
2022-11-13T00:42:07.403Z,16.97
2022-11-13T00:44:53.362Z,15.33
2022-11-13T00:47:39.183Z,15.20
2022-11-13T00:50:25.146Z,17.10
2022-11-13T00:53:16.836Z,14.93
2022-11-13T00:56:04.465Z,16.53
2022-11-13T00:58:50.237Z,13.50
2022-11-13T01:01:36.302Z,11.43
2022-11-13T01:04:22.160Z,14.03
2022-11-13T01:07:08.073Z,13.50
2022-11-13T01:09:54.363Z,15.13
2022-11-13T01:12:40.206Z,16.47
2022-11-13T01:15:26.990Z,14.03
2022-11-13T01:18:13.289Z,14.80
2022-11-13T01:21:04.304Z,14.70
2022-11-13T01:23:50.282Z,13.13
2022-11-13T01:26:36.206Z,14.67
2022-11-13T01:29:22.091Z,10.37
2022-11-13T01:32:08.563Z,10.13
2022-11-13T01:34:54.392Z,15.30
2022-11-13T01:37:40.205Z,12.80
2022-11-13T01:40:26.190Z,11.67
2022-11-13T01:43:24.548Z,9.37
2022-11-13T01:46:20.487Z,11.97
2022-11-13T01:49:20.383Z,10.83
2022-11-13T01:52:11.144Z,13.27
2022-11-13T01:55:02.159Z,11.87
2022-11-13T01:57:48.037Z,15.73
2022-11-13T02:00:34.314Z,12.30
2022-11-13T02:03:20.242Z,11.67
2022-11-13T02:06:06.474Z,11.90
2022-11-13T02:08:53.209Z,13.43
2022-11-13T02:11:39.937Z,11.87
2022-11-13T02:14:28.634Z,14.17
2022-11-13T02:17:22.901Z,11.60
2022-11-13T02:20:09.631Z,15.07
2022-11-13T02:23:43.346Z,11.03
2022-11-13T02:26:31.530Z,10.10
2022-11-13T02:29:17.886Z,11.03
2022-11-13T02:32:03.991Z,10.53
2022-11-13T02:34:49.861Z,12.17
2022-11-13T02:37:35.720Z,9.30
2022-11-13T02:40:21.969Z,7.57
2022-11-13T02:43:07.700Z,9.23
2022-11-13T02:45:53.871Z,9.13
2022-11-13T02:48:39.847Z,7.13
2022-11-13T02:51:26.112Z,9.80
2022-11-13T02:54:16.728Z,7.90
2022-11-13T03:00:14.208Z,8.77
2022-11-13T03:03:00.191Z,6.20
2022-11-13T03:05:49.946Z,7.30
2022-11-13T03:08:36.646Z,7.23
2022-11-13T03:11:22.647Z,7.17
2022-11-13T03:14:08.538Z,7.33
2022-11-13T03:16:54.404Z,6.40
2022-11-13T03:19:40.292Z,8.03
2022-11-13T03:22:27.326Z,6.07
2022-11-13T03:25:13.393Z,10.03
2022-11-13T03:27:59.152Z,7.30
2022-11-13T03:30:44.646Z,7.20
2022-11-13T03:33:30.656Z,7.73
2022-11-13T03:36:16.705Z,5.93
2022-11-13T03:39:02.684Z,5.53
2022-11-13T03:44:58.798Z,7.50
2022-11-13T03:47:44.658Z,5.50
2022-11-13T03:50:30.666Z,5.20
2022-11-13T03:53:16.852Z,6.57
2022-11-13T03:56:02.934Z,6.93
2022-11-13T03:58:49.762Z,6.27
2022-11-13T04:01:35.645Z,8.03
2022-11-13T04:04:21.917Z,5.70
2022-11-13T04:07:07.617Z,6.63
2022-11-13T04:09:53.620Z,5.83
2022-11-13T04:12:39.538Z,5.37
2022-11-13T04:15:25.391Z,6.07
2022-11-13T04:18:11.373Z,6.17
2022-11-13T04:21:05.127Z,6.23
2022-11-13T04:23:51.057Z,10.70
2022-11-13T04:26:36.943Z,5.87
2022-11-13T04:29:22.987Z,7.17
2022-11-13T04:32:09.055Z,4.30
2022-11-13T04:34:55.237Z,4.07
2022-11-13T04:37:41.175Z,6.67
2022-11-13T04:40:27.106Z,4.60
2022-11-13T04:43:13.140Z,4.77
2022-11-13T04:45:58.925Z,5.07
2022-11-13T04:48:44.874Z,7.07
2022-11-13T04:51:31.167Z,5.43
2022-11-13T04:54:17.524Z,3.87
2022-11-13T04:57:03.590Z,7.43
2022-11-13T04:59:49.371Z,6.20
2022-11-13T05:02:35.768Z,3.70
2022-11-13T05:05:21.821Z,6.00
2022-11-13T05:08:07.628Z,5.40
2022-11-13T05:10:53.469Z,5.00
2022-11-13T05:13:39.515Z,4.97
2022-11-13T05:16:25.273Z,6.60
2022-11-13T05:19:11.534Z,5.53
2022-11-13T05:21:57.356Z,6.13
2022-11-13T05:24:43.259Z,3.80
2022-11-13T05:27:29.204Z,5.43
2022-11-13T05:30:15.547Z,5.10
2022-11-13T05:33:01.516Z,4.93
2022-11-13T05:35:47.546Z,6.23
2022-11-13T05:38:33.423Z,6.83
2022-11-13T05:41:21.487Z,5.53
2022-11-13T05:44:07.599Z,6.90
2022-11-13T05:46:53.138Z,7.07
2022-11-13T05:49:39.080Z,6.33
2022-11-13T05:52:24.912Z,4.07
2022-11-13T05:55:10.843Z,5.77
2022-11-13T05:57:59.054Z,4.33
2022-11-13T06:00:44.959Z,6.63
2022-11-13T06:03:30.926Z,4.63
2022-11-13T06:06:19.096Z,5.63
2022-11-13T06:09:06.576Z,5.53
2022-11-13T06:11:52.379Z,6.77
2022-11-13T06:14:38.356Z,6.87
2022-11-13T06:17:24.368Z,6.90
2022-11-13T06:20:10.687Z,5.90
2022-11-13T06:22:58.014Z,3.30
2022-11-13T06:25:44.337Z,6.13
2022-11-13T06:28:30.662Z,5.50
2022-11-13T06:31:25.900Z,5.93
2022-11-13T06:34:12.037Z,6.00
2022-11-13T06:36:58.143Z,7.33
2022-11-13T06:39:43.891Z,4.70
2022-11-13T06:42:29.880Z,6.20
2022-11-13T06:45:15.973Z,5.30
2022-11-13T06:48:01.717Z,6.73
2022-11-13T06:50:48.641Z,5.53
2022-11-13T06:53:34.908Z,6.03
2022-11-13T06:56:21.507Z,5.30
2022-11-13T06:59:08.568Z,4.90
2022-11-13T07:01:54.281Z,5.60
2022-11-13T07:04:40.411Z,6.27
2022-11-13T07:07:26.236Z,7.70
2022-11-13T07:10:12.187Z,7.43
2022-11-13T07:13:01.176Z,8.90
2022-11-13T07:15:47.221Z,5.70
2022-11-13T07:18:33.721Z,6.40
2022-11-13T07:21:20.703Z,5.40
2022-11-13T07:24:06.950Z,8.77
2022-11-13T07:26:52.836Z,7.77
2022-11-13T07:29:39.295Z,6.47
2022-11-13T07:32:25.125Z,6.63
2022-11-13T07:35:11.764Z,6.17
2022-11-13T07:37:58.740Z,8.03
2022-11-13T07:40:45.350Z,7.03
2022-11-13T07:43:31.361Z,6.70
2022-11-13T07:46:17.243Z,6.40
2022-11-13T07:49:03.206Z,5.60
2022-11-13T07:51:49.054Z,5.30
2022-11-13T07:54:35.131Z,6.30
2022-11-13T07:57:22.933Z,6.50
2022-11-13T08:00:09.696Z,6.43
2022-11-13T08:02:55.764Z,7.50
2022-11-13T08:05:42.950Z,8.33
2022-11-13T08:08:29.387Z,7.87
2022-11-13T08:11:15.584Z,7.00
2022-11-13T08:14:01.647Z,7.33
2022-11-13T08:16:47.735Z,7.00
2022-11-13T08:19:33.632Z,7.73
2022-11-13T08:22:19.520Z,8.03
2022-11-13T08:25:06.018Z,6.60
2022-11-13T08:27:54.240Z,7.37
2022-11-13T08:30:42.742Z,6.43
2022-11-13T08:33:29.490Z,6.20
2022-11-13T08:36:15.252Z,6.47
2022-11-13T08:39:01.073Z,6.93
2022-11-13T08:41:46.954Z,7.03
2022-11-13T08:44:32.871Z,3.97
2022-11-13T08:47:18.817Z,5.23
2022-11-13T08:50:06.007Z,5.13
2022-11-13T08:52:59.133Z,4.83
2022-11-13T08:55:45.062Z,6.13
2022-11-13T08:58:31.444Z,7.70
2022-11-13T09:01:18.063Z,6.63
2022-11-13T09:04:04.206Z,3.22
2022-11-13T09:06:50.280Z,5.68
2022-11-13T09:09:36.320Z,4.72
2022-11-13T09:12:21.826Z,4.70
2022-11-13T09:15:08.409Z,5.97
2022-11-13T09:17:58.949Z,8.25
2022-11-13T09:20:44.523Z,4.97
2022-11-13T09:23:30.623Z,4.97
2022-11-13T09:26:16.824Z,4.07
2022-11-13T09:29:03.166Z,5.22
2022-11-13T09:31:50.277Z,6.00
2022-11-13T09:34:36.249Z,5.90
2022-11-13T09:37:21.899Z,4.03
2022-11-13T09:40:11.684Z,5.13
2022-11-13T09:42:58.810Z,4.57
2022-11-13T09:45:44.772Z,6.28
2022-11-13T09:48:38.177Z,6.10
2022-11-13T09:51:33.081Z,6.57
2022-11-13T09:54:19.156Z,4.80
2022-11-13T09:57:43.044Z,4.13
2022-11-13T10:00:33.195Z,4.97
2022-11-13T10:03:59.810Z,4.88
2022-11-13T10:07:23.657Z,6.45
2022-11-13T10:10:54.909Z,5.55
2022-11-13T10:13:48.165Z,4.10
2022-11-13T10:16:40.024Z,5.55
2022-11-13T10:19:44.259Z,5.90
2022-11-13T10:23:02.084Z,5.88
2022-11-13T10:25:48.606Z,5.65
2022-11-13T10:28:50.123Z,6.43
2022-11-13T10:31:48.248Z,4.88
2022-11-13T10:34:34.275Z,4.20
2022-11-13T10:37:48.936Z,6.93
2022-11-13T10:40:37.244Z,6.20
2022-11-13T10:43:25.861Z,5.65
2022-11-13T10:46:24.530Z,6.68
2022-11-13T10:49:22.741Z,4.63
2022-11-13T10:52:28.234Z,6.95
2022-11-13T10:55:40.311Z,4.47
2022-11-13T10:58:26.330Z,5.38
2022-11-13T11:01:23.905Z,7.78
2022-11-13T11:04:19.654Z,6.22
2022-11-13T11:07:20.180Z,5.00
2022-11-13T11:10:36.337Z,7.30
2022-11-13T11:13:24.334Z,4.60
2022-11-13T11:16:17.619Z,5.28
2022-11-13T11:19:09.272Z,6.30
2022-11-13T11:22:08.831Z,7.28
2022-11-13T11:25:15.701Z,7.43
2022-11-13T11:28:28.888Z,5.13
2022-11-13T11:31:17.719Z,4.15
2022-11-13T11:34:30.775Z,5.88
2022-11-13T11:37:23.112Z,4.10
2022-11-13T11:40:27.896Z,6.10
2022-11-13T11:43:35.596Z,4.10
2022-11-13T11:46:24.687Z,6.00
2022-11-13T11:49:10.955Z,4.55
2022-11-13T11:52:21.210Z,5.90
2022-11-13T11:55:25.754Z,5.25
2022-11-13T11:58:39.267Z,5.05
2022-11-13T12:01:47.477Z,5.13
2022-11-13T12:05:10.398Z,6.65
2022-11-13T12:08:22.189Z,5.10
2022-11-13T12:11:27.595Z,7.22
2022-11-13T12:14:53.044Z,5.00
2022-11-13T12:18:04.328Z,5.80
2022-11-13T12:21:15.319Z,7.40
2022-11-13T12:24:35.942Z,6.95
2022-11-13T12:27:53.669Z,7.63
2022-11-13T12:31:04.190Z,5.90
2022-11-13T12:34:23.779Z,5.15
2022-11-13T12:37:16.398Z,6.95
2022-11-13T12:40:28.102Z,8.07
2022-11-13T12:43:55.346Z,4.88
2022-11-13T12:46:42.243Z,6.78
2022-11-13T12:49:35.673Z,7.90
2022-11-13T12:52:24.486Z,6.55
2022-11-13T12:55:54.449Z,8.20
2022-11-13T12:58:40.420Z,6.70
2022-11-13T13:01:29.589Z,10.05
2022-11-13T13:04:52.567Z,8.00
2022-11-13T13:08:26.916Z,5.80
2022-11-13T13:11:53.879Z,7.43
2022-11-13T13:15:11.885Z,8.40
2022-11-13T13:18:25.331Z,7.78
2022-11-13T13:21:16.568Z,8.05
2022-11-13T13:24:26.379Z,8.38
2022-11-13T13:27:22.974Z,9.38
2022-11-13T13:30:25.233Z,6.53
2022-11-13T13:33:23.052Z,8.13
2022-11-13T13:36:30.279Z,6.00
2022-11-13T13:39:49.435Z,9.13
2022-11-13T13:43:18.372Z,8.93
2022-11-13T13:46:16.557Z,9.73
2022-11-13T13:49:11.260Z,7.45
2022-11-13T13:51:58.332Z,7.18
2022-11-13T13:54:45.787Z,7.80
2022-11-13T13:57:32.036Z,7.03
2022-11-13T14:00:20.603Z,9.82
2022-11-13T14:03:19.291Z,10.05
2022-11-13T14:06:24.795Z,11.13
2022-11-13T14:09:16.577Z,6.20
2022-11-13T14:12:09.657Z,9.10
2022-11-13T14:14:55.968Z,8.93
2022-11-13T14:17:41.965Z,8.07
2022-11-13T14:20:27.837Z,8.85
2022-11-13T14:23:20.543Z,8.65
2022-11-13T14:28:59.289Z,8.30
2022-11-13T14:31:45.893Z,13.70
2022-11-13T14:34:31.836Z,9.90
2022-11-13T14:37:28.046Z,10.27
2022-11-13T14:40:26.297Z,10.05
2022-11-13T14:43:21.134Z,10.13
2022-11-13T14:46:27.195Z,7.55
2022-11-13T14:49:31.548Z,9.50
2022-11-13T14:52:26.274Z,10.68
2022-11-13T14:55:24.122Z,11.15
2022-11-13T14:58:26.047Z,10.55
2022-11-13T15:01:17.692Z,15.15
2022-11-13T15:04:04.096Z,14.05
2022-11-13T15:06:53.615Z,13.63
2022-11-13T15:09:39.754Z,11.52
2022-11-13T15:12:25.943Z,12.10
2022-11-13T15:15:20.723Z,13.55
2022-11-13T15:18:07.597Z,12.80
2022-11-13T15:20:53.921Z,12.07
2022-11-13T15:23:39.543Z,14.48
2022-11-13T15:26:25.598Z,13.23
2022-11-13T15:29:11.563Z,14.30
2022-11-13T15:31:57.800Z,12.57
2022-11-13T15:34:43.624Z,13.07
2022-11-13T15:37:29.548Z,17.20
2022-11-13T15:40:17.695Z,11.18
2022-11-13T15:43:04.324Z,13.73
2022-11-13T15:45:49.895Z,12.23
2022-11-13T15:48:36.026Z,13.35
2022-11-13T15:51:38.030Z,14.20
2022-11-13T15:54:33.121Z,14.90
2022-11-13T15:57:24.816Z,13.90
2022-11-13T16:00:24.995Z,15.80
2022-11-13T16:03:12.385Z,18.05
2022-11-13T16:05:59.430Z,14.00
2022-11-13T16:08:45.425Z,16.70
2022-11-13T16:11:33.194Z,15.07
2022-11-13T16:14:24.320Z,17.20
2022-11-13T16:17:13.817Z,14.82
2022-11-13T16:20:01.967Z,15.38
2022-11-13T16:22:47.789Z,18.63
2022-11-13T16:25:33.748Z,14.30
2022-11-13T16:28:19.957Z,16.45
2022-11-13T16:31:05.763Z,15.23
2022-11-13T16:33:51.310Z,15.60
2022-11-13T16:36:37.280Z,16.90
2022-11-13T16:39:22.876Z,19.67
2022-11-13T16:42:09.166Z,18.27
2022-11-13T16:44:54.737Z,14.45
2022-11-13T16:47:40.963Z,16.73
2022-11-13T16:50:31.042Z,19.17
2022-11-13T16:53:16.845Z,13.93
2022-11-13T16:56:08.807Z,18.02
2022-11-13T16:58:58.982Z,17.35
2022-11-13T17:01:44.752Z,16.08
2022-11-13T17:04:30.574Z,13.60
2022-11-13T17:07:16.816Z,16.50
2022-11-13T17:13:09.856Z,19.33
2022-11-13T17:15:59.926Z,18.63
2022-11-13T17:18:46.003Z,17.33
2022-11-13T17:21:31.927Z,14.75
2022-11-13T17:24:17.990Z,18.30
2022-11-13T17:27:04.329Z,19.85
2022-11-13T17:29:50.445Z,17.33
2022-11-13T17:32:36.367Z,14.35
2022-11-13T17:35:22.233Z,19.15
2022-11-13T17:38:08.206Z,16.05
2022-11-13T17:40:54.573Z,20.38
2022-11-13T17:43:41.881Z,16.88
2022-11-13T17:46:27.626Z,19.40
2022-11-13T17:49:13.672Z,16.70
2022-11-13T17:51:59.399Z,18.42
2022-11-13T17:54:45.271Z,21.90
2022-11-13T17:57:31.783Z,16.95
2022-11-13T18:00:18.585Z,22.30
2022-11-13T18:03:04.664Z,21.52
2022-11-13T18:05:50.700Z,19.50
2022-11-13T18:08:39.633Z,20.58
2022-11-13T18:11:26.991Z,19.65
2022-11-13T18:14:12.929Z,26.77
2022-11-13T18:16:58.846Z,16.90
2022-11-13T18:19:45.340Z,15.57
2022-11-13T18:22:31.623Z,19.23
2022-11-13T18:25:18.226Z,19.75
2022-11-13T18:28:06.873Z,21.65
2022-11-13T18:30:56.422Z,20.35
2022-11-13T18:33:43.071Z,22.30
2022-11-13T18:36:29.246Z,19.27
2022-11-13T18:39:16.869Z,20.30
2022-11-13T18:42:03.124Z,21.15
2022-11-13T18:44:49.245Z,18.17
2022-11-13T18:47:34.851Z,18.70
2022-11-13T18:50:22.205Z,20.45
2022-11-13T18:53:07.966Z,19.23
2022-11-13T18:55:58.179Z,19.52
2022-11-13T18:58:45.158Z,20.23
2022-11-13T19:01:33.706Z,19.15
2022-11-13T19:04:23.910Z,18.95
2022-11-13T19:07:12.517Z,23.70
2022-11-13T19:09:58.344Z,24.20
2022-11-13T19:12:44.583Z,21.83
2022-11-13T19:15:30.211Z,21.63
2022-11-13T19:18:16.039Z,20.58
2022-11-13T19:21:11.557Z,22.10
2022-11-13T19:23:58.735Z,18.95
2022-11-13T19:26:45.132Z,25.25
2022-11-13T19:29:30.768Z,20.83
2022-11-13T19:32:16.583Z,16.98
2022-11-13T19:35:02.754Z,21.52
2022-11-13T19:37:48.611Z,20.75
2022-11-13T19:40:34.571Z,20.83
2022-11-13T19:43:20.511Z,19.65
2022-11-13T19:46:08.248Z,17.30
2022-11-13T19:48:54.334Z,22.02
2022-11-13T19:51:40.217Z,19.95
2022-11-13T19:54:26.139Z,19.75
2022-11-13T19:57:12.119Z,25.00
2022-11-13T19:59:57.983Z,21.70
2022-11-13T20:02:44.037Z,21.52
2022-11-13T20:05:30.026Z,20.92
2022-11-13T20:08:15.887Z,22.73
2022-11-13T20:11:04.288Z,19.00
2022-11-13T20:13:50.189Z,16.08
2022-11-13T20:16:36.172Z,15.80
2022-11-13T20:19:22.040Z,19.15
2022-11-13T20:22:07.816Z,19.88
2022-11-13T20:24:53.713Z,17.38
2022-11-13T20:27:41.884Z,20.40
2022-11-13T20:30:31.777Z,16.45
2022-11-13T20:33:22.385Z,19.85
2022-11-13T20:36:08.996Z,17.15
2022-11-13T20:38:56.662Z,21.02
2022-11-13T20:41:42.547Z,20.13
2022-11-13T20:44:28.571Z,18.20
2022-11-13T20:47:14.690Z,23.30
2022-11-13T20:50:00.679Z,18.70
2022-11-13T20:52:46.675Z,25.33
2022-11-13T20:55:32.614Z,17.58
2022-11-13T20:58:18.453Z,20.02
2022-11-13T21:01:10.594Z,19.90
2022-11-13T21:03:56.390Z,19.42
2022-11-13T21:06:42.680Z,19.90
2022-11-13T21:09:28.450Z,21.77
2022-11-13T21:12:14.318Z,18.27
2022-11-13T21:15:00.156Z,19.58
2022-11-13T21:17:46.086Z,17.85
2022-11-13T21:20:34.090Z,18.05
2022-11-13T21:23:20.048Z,15.23
2022-11-13T21:26:07.421Z,18.30
2022-11-13T21:28:57.468Z,16.45
2022-11-13T21:31:43.509Z,17.15
2022-11-13T21:34:29.491Z,16.52
2022-11-13T21:37:16.106Z,17.73
2022-11-13T21:40:02.118Z,14.60
2022-11-13T21:42:47.980Z,14.93
2022-11-13T21:45:34.696Z,15.70
2022-11-13T21:48:20.355Z,20.30
2022-11-13T21:51:06.573Z,18.23
2022-11-13T21:53:52.870Z,15.73
2022-11-13T21:56:39.527Z,16.42
2022-11-13T21:59:25.308Z,20.25
2022-11-13T22:02:11.423Z,15.45
2022-11-13T22:04:57.317Z,14.93
2022-11-13T22:07:43.489Z,14.95
2022-11-13T22:10:29.151Z,12.23
2022-11-13T22:13:15.007Z,14.82
2022-11-13T22:16:04.450Z,11.02
2022-11-13T22:18:59.052Z,13.40
2022-11-13T22:21:46.323Z,14.85
2022-11-13T22:24:32.108Z,15.27
2022-11-13T22:27:18.420Z,11.90
2022-11-13T22:30:04.771Z,11.57
2022-11-13T22:32:50.620Z,15.70
2022-11-13T22:35:36.505Z,12.50
2022-11-13T22:38:22.309Z,13.75
2022-11-13T22:41:22.810Z,11.57
2022-11-13T22:44:12.905Z,15.32
2022-11-13T22:46:58.641Z,13.90
2022-11-13T22:49:44.999Z,15.80
2022-11-13T22:52:30.976Z,14.57
2022-11-13T22:55:17.172Z,10.65
2022-11-13T22:58:03.097Z,11.75
2022-11-13T23:00:49.156Z,15.23
2022-11-13T23:03:41.547Z,12.90
2022-11-13T23:06:30.227Z,14.18
2022-11-13T23:09:16.144Z,16.73
2022-11-13T23:12:02.084Z,11.15
2022-11-13T23:14:47.959Z,16.02
2022-11-13T23:17:34.062Z,13.32
2022-11-13T23:20:20.019Z,11.00
2022-11-13T23:23:05.949Z,13.32
2022-11-13T23:25:52.166Z,13.80
2022-11-13T23:28:38.549Z,12.57
2022-11-13T23:31:24.791Z,12.77
2022-11-13T23:34:10.908Z,12.48
2022-11-13T23:36:56.881Z,13.00
2022-11-13T23:39:42.897Z,12.77
2022-11-13T23:42:53.474Z,11.48
2022-11-13T23:45:34.923Z,11.30
2022-11-13T23:48:20.973Z,10.50
2022-11-13T23:51:06.914Z,11.13
2022-11-13T23:53:52.997Z,14.05
2022-11-13T23:56:39.191Z,12.13
2022-11-13T23:59:24.835Z,12.45
